sensor_id;sensor_type;location;lat;lon;timestamp;pressure;altitude;pressure_sealevel;temperature;humidity
70930;BME280;58588;48.102;19.682;2023-02-19T00:02:27;99299.75;;;9.27;100.00
70930;BME280;58588;48.102;19.682;2023-02-19T00:05:29;99298.41;;;9.23;100.00
70930;BME280;58588;48.102;19.682;2023-02-19T00:08:32;99312.88;;;9.22;100.00
70930;BME280;58588;48.102;19.682;2023-02-19T00:11:34;99303.25;;;9.13;100.00
70930;BME280;58588;48.102;19.682;2023-02-19T00:14:36;99293.03;;;9.08;100.00
70930;BME280;58588;48.102;19.682;2023-02-19T00:17:40;99295.22;;;9.05;100.00
70930;BME280;58588;48.102;19.682;2023-02-19T00:20:42;99301.28;;;9.07;100.00
70930;BME280;58588;48.102;19.682;2023-02-19T00:23:48;99300.44;;;9.06;100.00
70930;BME280;58588;48.102;19.682;2023-02-19T00:26:50;99296.91;;;9.06;100.00
70930;BME280;58588;48.102;19.682;2023-02-19T00:29:52;99297.56;;;8.85;100.00
70930;BME280;58588;48.102;19.682;2023-02-19T00:32:55;99299.97;;;8.80;100.00
70930;BME280;58588;48.102;19.682;2023-02-19T00:35:59;99308.41;;;8.77;100.00
70930;BME280;58588;48.102;19.682;2023-02-19T00:39:01;99305.59;;;8.70;100.00
70930;BME280;58588;48.102;19.682;2023-02-19T00:42:04;99315.97;;;8.73;100.00
70930;BME280;58588;48.102;19.682;2023-02-19T00:45:06;99324.69;;;8.75;100.00
70930;BME280;58588;48.102;19.682;2023-02-19T00:48:10;99322.19;;;8.74;100.00
70930;BME280;58588;48.102;19.682;2023-02-19T00:51:12;99322.84;;;8.76;100.00
70930;BME280;58588;48.102;19.682;2023-02-19T00:54:15;99338.00;;;8.92;100.00
70930;BME280;58588;48.102;19.682;2023-02-19T00:57:17;99333.53;;;8.84;100.00
70930;BME280;58588;48.102;19.682;2023-02-19T01:00:19;99327.50;;;8.82;100.00
70930;BME280;58588;48.102;19.682;2023-02-19T01:03:23;99347.41;;;8.96;100.00
70930;BME280;58588;48.102;19.682;2023-02-19T01:06:25;99334.31;;;8.93;100.00
70930;BME280;58588;48.102;19.682;2023-02-19T01:09:29;99327.06;;;8.93;100.00
70930;BME280;58588;48.102;19.682;2023-02-19T01:12:31;99326.72;;;8.96;100.00
70930;BME280;58588;48.102;19.682;2023-02-19T01:15:33;99316.16;;;8.95;100.00
70930;BME280;58588;48.102;19.682;2023-02-19T01:18:37;99327.44;;;8.90;100.00
70930;BME280;58588;48.102;19.682;2023-02-19T01:21:39;99312.34;;;8.89;100.00
70930;BME280;58588;48.102;19.682;2023-02-19T01:24:41;99297.56;;;8.85;100.00
70930;BME280;58588;48.102;19.682;2023-02-19T01:27:43;99290.75;;;8.74;100.00
70930;BME280;58588;48.102;19.682;2023-02-19T01:30:45;99286.66;;;8.64;100.00
70930;BME280;58588;48.102;19.682;2023-02-19T01:33:50;99298.53;;;8.46;100.00
70930;BME280;58588;48.102;19.682;2023-02-19T01:36:52;99301.25;;;8.30;100.00
70930;BME280;58588;48.102;19.682;2023-02-19T01:39:54;99313.47;;;8.10;100.00
70930;BME280;58588;48.102;19.682;2023-02-19T01:42:56;99312.81;;;7.99;100.00
70930;BME280;58588;48.102;19.682;2023-02-19T01:45:59;99313.09;;;8.13;100.00
70930;BME280;58588;48.102;19.682;2023-02-19T01:49:05;99316.75;;;8.20;100.00
70930;BME280;58588;48.102;19.682;2023-02-19T01:52:11;99316.53;;;8.29;100.00
70930;BME280;58588;48.102;19.682;2023-02-19T01:55:14;99325.91;;;8.42;100.00
70930;BME280;58588;48.102;19.682;2023-02-19T01:58:16;99324.50;;;8.54;100.00
70930;BME280;58588;48.102;19.682;2023-02-19T02:01:19;99319.78;;;8.56;100.00
70930;BME280;58588;48.102;19.682;2023-02-19T02:04:22;99330.59;;;8.71;100.00
70930;BME280;58588;48.102;19.682;2023-02-19T02:07:25;99326.19;;;8.78;100.00
70930;BME280;58588;48.102;19.682;2023-02-19T02:10:44;99324.88;;;8.97;100.00
70930;BME280;58588;48.102;19.682;2023-02-19T02:13:47;99336.75;;;9.02;100.00
70930;BME280;58588;48.102;19.682;2023-02-19T02:16:55;99334.84;;;9.11;100.00
70930;BME280;58588;48.102;19.682;2023-02-19T02:20:14;99326.44;;;8.91;100.00
70930;BME280;58588;48.102;19.682;2023-02-19T02:23:32;99331.56;;;9.01;100.00
70930;BME280;58588;48.102;19.682;2023-02-19T02:26:47;99336.16;;;9.15;100.00
70930;BME280;58588;48.102;19.682;2023-02-19T02:30:10;99338.81;;;9.00;100.00
70930;BME280;58588;48.102;19.682;2023-02-19T02:33:41;99352.53;;;9.05;100.00
70930;BME280;58588;48.102;19.682;2023-02-19T02:36:46;99355.47;;;9.19;100.00
70930;BME280;58588;48.102;19.682;2023-02-19T02:39:50;99359.72;;;9.13;100.00
70930;BME280;58588;48.102;19.682;2023-02-19T02:42:56;99364.19;;;9.21;100.00
70930;BME280;58588;48.102;19.682;2023-02-19T02:46:00;99361.25;;;9.30;100.00
70930;BME280;58588;48.102;19.682;2023-02-19T02:49:05;99355.31;;;9.35;100.00
70930;BME280;58588;48.102;19.682;2023-02-19T02:52:09;99350.50;;;9.30;100.00
70930;BME280;58588;48.102;19.682;2023-02-19T02:55:41;99350.53;;;9.22;100.00
70930;BME280;58588;48.102;19.682;2023-02-19T02:58:43;99357.31;;;9.18;100.00
70930;BME280;58588;48.102;19.682;2023-02-19T03:01:49;99353.84;;;9.09;100.00
70930;BME280;58588;48.102;19.682;2023-02-19T03:05:14;99340.66;;;9.00;100.00
70930;BME280;58588;48.102;19.682;2023-02-19T03:08:37;99338.78;;;8.77;100.00
70930;BME280;58588;48.102;19.682;2023-02-19T03:11:42;99355.63;;;8.71;100.00
70930;BME280;58588;48.102;19.682;2023-02-19T03:15:08;99365.13;;;8.51;100.00
70930;BME280;58588;48.102;19.682;2023-02-19T03:18:31;99371.34;;;8.51;100.00
70930;BME280;58588;48.102;19.682;2023-02-19T03:21:54;99366.50;;;8.47;100.00
70930;BME280;58588;48.102;19.682;2023-02-19T03:25:00;99366.38;;;8.32;100.00
70930;BME280;58588;48.102;19.682;2023-02-19T03:28:24;99357.47;;;8.31;100.00
70930;BME280;58588;48.102;19.682;2023-02-19T03:31:48;99354.16;;;8.21;100.00
70930;BME280;58588;48.102;19.682;2023-02-19T03:34:56;99340.06;;;8.19;100.00
70930;BME280;58588;48.102;19.682;2023-02-19T03:38:03;99339.75;;;8.14;100.00
70930;BME280;58588;48.102;19.682;2023-02-19T03:41:14;99339.88;;;8.21;100.00
70930;BME280;58588;48.102;19.682;2023-02-19T03:44:36;99369.47;;;8.13;100.00
70930;BME280;58588;48.102;19.682;2023-02-19T03:47:45;99367.16;;;8.10;100.00
70930;BME280;58588;48.102;19.682;2023-02-19T03:50:57;99359.53;;;8.21;100.00
70930;BME280;58588;48.102;19.682;2023-02-19T03:54:10;99356.94;;;8.44;100.00
70930;BME280;58588;48.102;19.682;2023-02-19T03:57:18;99353.34;;;8.60;100.00
70930;BME280;58588;48.102;19.682;2023-02-19T04:00:26;99348.47;;;8.64;100.00
70930;BME280;58588;48.102;19.682;2023-02-19T04:03:35;99362.88;;;8.63;100.00
70930;BME280;58588;48.102;19.682;2023-02-19T04:06:43;99364.72;;;8.70;100.00
70930;BME280;58588;48.102;19.682;2023-02-19T04:09:48;99369.78;;;8.65;100.00
70930;BME280;58588;48.102;19.682;2023-02-19T04:12:56;99360.38;;;8.61;100.00
70930;BME280;58588;48.102;19.682;2023-02-19T04:16:03;99370.63;;;8.57;100.00
70930;BME280;58588;48.102;19.682;2023-02-19T04:19:10;99375.34;;;8.55;100.00
70930;BME280;58588;48.102;19.682;2023-02-19T04:22:16;99368.13;;;8.56;100.00
70930;BME280;58588;48.102;19.682;2023-02-19T04:25:18;99368.66;;;8.51;100.00
70930;BME280;58588;48.102;19.682;2023-02-19T04:28:20;99377.56;;;8.52;100.00
70930;BME280;58588;48.102;19.682;2023-02-19T04:31:23;99366.84;;;8.52;100.00
70930;BME280;58588;48.102;19.682;2023-02-19T04:34:26;99385.44;;;8.53;100.00
70930;BME280;58588;48.102;19.682;2023-02-19T04:37:30;99369.66;;;8.81;100.00
70930;BME280;58588;48.102;19.682;2023-02-19T04:40:32;99365.38;;;8.95;100.00
70930;BME280;58588;48.102;19.682;2023-02-19T04:43:34;99361.25;;;9.07;100.00
70930;BME280;58588;48.102;19.682;2023-02-19T04:46:36;99353.91;;;8.78;100.00
70930;BME280;58588;48.102;19.682;2023-02-19T04:49:38;99351.75;;;8.74;100.00
70930;BME280;58588;48.102;19.682;2023-02-19T04:52:41;99362.72;;;8.64;100.00
70930;BME280;58588;48.102;19.682;2023-02-19T04:55:43;99363.59;;;8.56;100.00
70930;BME280;58588;48.102;19.682;2023-02-19T04:58:46;99370.34;;;8.52;100.00
70930;BME280;58588;48.102;19.682;2023-02-19T05:01:48;99366.00;;;8.43;100.00
70930;BME280;58588;48.102;19.682;2023-02-19T05:04:50;99357.63;;;8.46;100.00
70930;BME280;58588;48.102;19.682;2023-02-19T05:07:53;99353.69;;;8.57;100.00
70930;BME280;58588;48.102;19.682;2023-02-19T05:10:56;99347.16;;;8.51;100.00
70930;BME280;58588;48.102;19.682;2023-02-19T05:13:59;99347.84;;;8.53;100.00
70930;BME280;58588;48.102;19.682;2023-02-19T05:17:01;99338.75;;;8.54;100.00
70930;BME280;58588;48.102;19.682;2023-02-19T05:20:04;99336.91;;;8.55;100.00
70930;BME280;58588;48.102;19.682;2023-02-19T05:23:07;99335.56;;;8.51;100.00
70930;BME280;58588;48.102;19.682;2023-02-19T05:26:12;99329.03;;;8.53;100.00
70930;BME280;58588;48.102;19.682;2023-02-19T05:29:17;99323.69;;;8.45;100.00
70930;BME280;58588;48.102;19.682;2023-02-19T05:32:19;99336.16;;;8.38;100.00
70930;BME280;58588;48.102;19.682;2023-02-19T05:35:21;99328.09;;;8.38;100.00
70930;BME280;58588;48.102;19.682;2023-02-19T05:38:24;99319.38;;;8.36;100.00
70930;BME280;58588;48.102;19.682;2023-02-19T05:41:28;99315.38;;;8.24;100.00
70930;BME280;58588;48.102;19.682;2023-02-19T05:44:30;99310.22;;;8.14;100.00
70930;BME280;58588;48.102;19.682;2023-02-19T05:47:32;99315.63;;;8.06;100.00
70930;BME280;58588;48.102;19.682;2023-02-19T05:50:35;99306.22;;;8.10;100.00
70930;BME280;58588;48.102;19.682;2023-02-19T05:53:40;99320.00;;;8.07;100.00
70930;BME280;58588;48.102;19.682;2023-02-19T05:56:42;99317.72;;;7.88;100.00
70930;BME280;58588;48.102;19.682;2023-02-19T05:59:44;99309.81;;;7.94;100.00
70930;BME280;58588;48.102;19.682;2023-02-19T06:02:46;99306.75;;;8.05;100.00
70930;BME280;58588;48.102;19.682;2023-02-19T06:05:48;99318.47;;;8.13;100.00
70930;BME280;58588;48.102;19.682;2023-02-19T06:08:52;99332.13;;;7.95;100.00
70930;BME280;58588;48.102;19.682;2023-02-19T06:11:54;99336.84;;;7.93;100.00
70930;BME280;58588;48.102;19.682;2023-02-19T06:14:57;99354.34;;;7.64;100.00
70930;BME280;58588;48.102;19.682;2023-02-19T06:17:59;99359.34;;;7.75;100.00
70930;BME280;58588;48.102;19.682;2023-02-19T06:21:02;99358.41;;;8.16;100.00
70930;BME280;58588;48.102;19.682;2023-02-19T06:24:07;99357.81;;;8.37;100.00
70930;BME280;58588;48.102;19.682;2023-02-19T06:27:09;99354.44;;;8.43;100.00
70930;BME280;58588;48.102;19.682;2023-02-19T06:30:12;99345.28;;;8.60;100.00
70930;BME280;58588;48.102;19.682;2023-02-19T06:33:14;99339.81;;;8.76;100.00
70930;BME280;58588;48.102;19.682;2023-02-19T06:36:18;99335.97;;;8.71;100.00
70930;BME280;58588;48.102;19.682;2023-02-19T06:39:22;99332.94;;;8.74;100.00
70930;BME280;58588;48.102;19.682;2023-02-19T06:42:24;99324.81;;;8.82;100.00
70930;BME280;58588;48.102;19.682;2023-02-19T06:45:26;99323.94;;;8.90;100.00
70930;BME280;58588;48.102;19.682;2023-02-19T06:48:29;99321.53;;;8.95;100.00
70930;BME280;58588;48.102;19.682;2023-02-19T06:51:32;99321.34;;;8.96;100.00
70930;BME280;58588;48.102;19.682;2023-02-19T06:54:36;99317.34;;;9.15;100.00
70930;BME280;58588;48.102;19.682;2023-02-19T06:57:39;99322.28;;;9.03;100.00
70930;BME280;58588;48.102;19.682;2023-02-19T07:00:41;99321.94;;;9.06;100.00
70930;BME280;58588;48.102;19.682;2023-02-19T07:03:43;99319.25;;;9.06;100.00
70930;BME280;58588;48.102;19.682;2023-02-19T07:06:45;99314.16;;;9.11;100.00
70930;BME280;58588;48.102;19.682;2023-02-19T07:09:48;99315.22;;;9.25;100.00
70930;BME280;58588;48.102;19.682;2023-02-19T07:12:50;99314.41;;;9.25;100.00
70930;BME280;58588;48.102;19.682;2023-02-19T07:15:57;99311.59;;;9.18;100.00
70930;BME280;58588;48.102;19.682;2023-02-19T07:19:00;99311.59;;;9.18;100.00
70930;BME280;58588;48.102;19.682;2023-02-19T07:22:02;99316.06;;;9.26;100.00
70930;BME280;58588;48.102;19.682;2023-02-19T07:25:06;99311.81;;;9.31;100.00
70930;BME280;58588;48.102;19.682;2023-02-19T07:28:08;99316.28;;;9.39;100.00
70930;BME280;58588;48.102;19.682;2023-02-19T07:31:10;99312.94;;;9.37;100.00
70930;BME280;58588;48.102;19.682;2023-02-19T07:34:13;99291.81;;;9.49;100.00
70930;BME280;58588;48.102;19.682;2023-02-19T07:37:15;99305.06;;;9.50;100.00
70930;BME280;58588;48.102;19.682;2023-02-19T07:40:18;99310.94;;;9.54;100.00
70930;BME280;58588;48.102;19.682;2023-02-19T07:43:21;99312.59;;;9.55;100.00
70930;BME280;58588;48.102;19.682;2023-02-19T07:46:24;99316.13;;;9.55;100.00
70930;BME280;58588;48.102;19.682;2023-02-19T07:49:26;99325.22;;;9.54;100.00
70930;BME280;58588;48.102;19.682;2023-02-19T07:52:28;99322.53;;;9.54;100.00
70930;BME280;58588;48.102;19.682;2023-02-19T07:55:32;99320.28;;;9.58;100.00
70930;BME280;58588;48.102;19.682;2023-02-19T07:58:34;99327.47;;;9.65;100.00
70930;BME280;58588;48.102;19.682;2023-02-19T08:01:36;99323.91;;;9.65;100.00
70930;BME280;58588;48.102;19.682;2023-02-19T08:04:55;99320.22;;;9.66;100.00
70930;BME280;58588;48.102;19.682;2023-02-19T08:07:58;99333.78;;;9.73;100.00
70930;BME280;58588;48.102;19.682;2023-02-19T08:11:02;99339.25;;;9.79;100.00
70930;BME280;58588;48.102;19.682;2023-02-19T08:14:27;99332.47;;;9.83;100.00
70930;BME280;58588;48.102;19.682;2023-02-19T08:17:29;99338.03;;;9.82;100.00
70930;BME280;58588;48.102;19.682;2023-02-19T08:20:32;99334.69;;;9.95;100.00
70930;BME280;58588;48.102;19.682;2023-02-19T08:23:34;99346.13;;;9.82;100.00
70930;BME280;58588;48.102;19.682;2023-02-19T08:26:37;99341.22;;;9.85;100.00
70930;BME280;58588;48.102;19.682;2023-02-19T08:29:42;99328.09;;;9.82;100.00
70930;BME280;58588;48.102;19.682;2023-02-19T08:32:44;99326.19;;;9.91;100.00
70930;BME280;58588;48.102;19.682;2023-02-19T08:35:47;99317.34;;;9.82;100.00
70930;BME280;58588;48.102;19.682;2023-02-19T08:38:49;99330.88;;;9.89;100.00
70930;BME280;58588;48.102;19.682;2023-02-19T08:41:52;99314.56;;;9.90;100.00
70930;BME280;58588;48.102;19.682;2023-02-19T08:44:54;99312.88;;;9.89;100.00
70930;BME280;58588;48.102;19.682;2023-02-19T08:47:57;99317.81;;;9.86;100.00
70930;BME280;58588;48.102;19.682;2023-02-19T08:51:00;99318.91;;;10.06;100.00
70930;BME280;58588;48.102;19.682;2023-02-19T08:54:03;99316.22;;;10.21;100.00
70930;BME280;58588;48.102;19.682;2023-02-19T08:57:07;99308.25;;;10.28;100.00
70930;BME280;58588;48.102;19.682;2023-02-19T09:00:13;99310.97;;;10.49;100.00
70930;BME280;58588;48.102;19.682;2023-02-19T09:03:15;99298.38;;;10.71;100.00
70930;BME280;58588;48.102;19.682;2023-02-19T09:06:19;99291.50;;;10.90;100.00
70930;BME280;58588;48.102;19.682;2023-02-19T09:09:21;99310.84;;;10.93;100.00
70930;BME280;58588;48.102;19.682;2023-02-19T09:12:24;99299.44;;;11.19;100.00
70930;BME280;58588;48.102;19.682;2023-02-19T09:15:26;99308.09;;;11.36;100.00
70930;BME280;58588;48.102;19.682;2023-02-19T09:18:29;99297.09;;;11.66;100.00
70930;BME280;58588;48.102;19.682;2023-02-19T09:21:31;99307.94;;;11.44;100.00
70930;BME280;58588;48.102;19.682;2023-02-19T09:24:33;99305.81;;;11.68;100.00
70930;BME280;58588;48.102;19.682;2023-02-19T09:27:36;99305.59;;;11.91;100.00
70930;BME280;58588;48.102;19.682;2023-02-19T09:30:38;99298.53;;;11.90;100.00
70930;BME280;58588;48.102;19.682;2023-02-19T09:33:44;99293.03;;;12.72;100.00
70930;BME280;58588;48.102;19.682;2023-02-19T09:36:48;99302.03;;;12.99;100.00
70930;BME280;58588;48.102;19.682;2023-02-19T09:39:50;99286.63;;;12.19;100.00
70930;BME280;58588;48.102;19.682;2023-02-19T09:42:53;99276.97;;;12.03;100.00
70930;BME280;58588;48.102;19.682;2023-02-19T09:46:01;99275.84;;;11.84;100.00
70930;BME280;58588;48.102;19.682;2023-02-19T09:49:09;99272.78;;;11.94;100.00
70930;BME280;58588;48.102;19.682;2023-02-19T09:52:18;99271.91;;;11.87;100.00
70930;BME280;58588;48.102;19.682;2023-02-19T09:55:29;99260.38;;;11.71;100.00
70930;BME280;58588;48.102;19.682;2023-02-19T09:58:46;99257.22;;;11.96;100.00
70930;BME280;58588;48.102;19.682;2023-02-19T10:01:55;99240.72;;;11.84;100.00
70930;BME280;58588;48.102;19.682;2023-02-19T10:04:58;99225.66;;;11.68;100.00
70930;BME280;58588;48.102;19.682;2023-02-19T10:08:04;99236.41;;;11.27;100.00
70930;BME280;58588;48.102;19.682;2023-02-19T10:11:10;99238.28;;;10.98;100.00
70930;BME280;58588;48.102;19.682;2023-02-19T10:14:16;99232.38;;;10.88;100.00
70930;BME280;58588;48.102;19.682;2023-02-19T10:17:22;99238.84;;;10.94;100.00
70930;BME280;58588;48.102;19.682;2023-02-19T10:20:25;99253.03;;;10.60;100.00
70930;BME280;58588;48.102;19.682;2023-02-19T10:23:30;99256.06;;;10.50;100.00
70930;BME280;58588;48.102;19.682;2023-02-19T10:26:34;99254.25;;;10.36;100.00
70930;BME280;58588;48.102;19.682;2023-02-19T10:29:38;99262.00;;;9.95;100.00
70930;BME280;58588;48.102;19.682;2023-02-19T10:32:57;99267.97;;;9.90;100.00
70930;BME280;58588;48.102;19.682;2023-02-19T10:36:02;99261.19;;;9.64;100.00
70930;BME280;58588;48.102;19.682;2023-02-19T10:42:25;99263.25;;;9.10;100.00
70930;BME280;58588;48.102;19.682;2023-02-19T10:45:33;99245.44;;;8.94;100.00
70930;BME280;58588;48.102;19.682;2023-02-19T10:52:30;99253.91;;;9.06;100.00
70930;BME280;58588;48.102;19.682;2023-02-19T10:55:35;99241.44;;;9.05;100.00
70930;BME280;58588;48.102;19.682;2023-02-19T11:00:27;99240.47;;;9.21;100.00
70930;BME280;58588;48.102;19.682;2023-02-19T11:07:16;99221.03;;;8.96;100.00
70930;BME280;58588;48.102;19.682;2023-02-19T11:10:22;99226.63;;;9.09;100.00
70930;BME280;58588;48.102;19.682;2023-02-19T11:18:01;99219.88;;;9.13;100.00
70930;BME280;58588;48.102;19.682;2023-02-19T11:21:06;99192.25;;;9.19;100.00
70930;BME280;58588;48.102;19.682;2023-02-19T11:24:21;99192.94;;;9.87;100.00
70930;BME280;58588;48.102;19.682;2023-02-19T11:27:24;99190.72;;;10.27;100.00
70930;BME280;58588;48.102;19.682;2023-02-19T11:30:37;99194.84;;;10.44;100.00
70930;BME280;58588;48.102;19.682;2023-02-19T11:33:43;99180.34;;;10.45;100.00
70930;BME280;58588;48.102;19.682;2023-02-19T11:36:48;99172.88;;;10.47;100.00
70930;BME280;58588;48.102;19.682;2023-02-19T11:39:56;99170.78;;;10.64;100.00
70930;BME280;58588;48.102;19.682;2023-02-19T11:43:01;99164.91;;;11.10;100.00
70930;BME280;58588;48.102;19.682;2023-02-19T11:46:12;99156.78;;;11.44;100.00
70930;BME280;58588;48.102;19.682;2023-02-19T11:49:27;99173.75;;;11.32;100.00
70930;BME280;58588;48.102;19.682;2023-02-19T11:52:41;99143.81;;;11.68;100.00
70930;BME280;58588;48.102;19.682;2023-02-19T11:56:01;99145.06;;;12.20;100.00
70930;BME280;58588;48.102;19.682;2023-02-19T11:59:12;99128.59;;;12.08;100.00
70930;BME280;58588;48.102;19.682;2023-02-19T12:02:39;99135.66;;;12.09;100.00
70930;BME280;58588;48.102;19.682;2023-02-19T12:06:04;99137.16;;;12.12;100.00
70930;BME280;58588;48.102;19.682;2023-02-19T12:09:29;99126.19;;;11.72;100.00
70930;BME280;58588;48.102;19.682;2023-02-19T12:12:47;99120.97;;;11.64;100.00
70930;BME280;58588;48.102;19.682;2023-02-19T12:16:14;99101.16;;;11.50;100.00
70930;BME280;58588;48.102;19.682;2023-02-19T12:19:36;99101.34;;;11.42;100.00
70930;BME280;58588;48.102;19.682;2023-02-19T12:22:48;99106.53;;;11.85;100.00
70930;BME280;58588;48.102;19.682;2023-02-19T12:26:00;99095.94;;;11.83;100.00
70930;BME280;58588;48.102;19.682;2023-02-19T12:29:27;99099.03;;;11.87;100.00
70930;BME280;58588;48.102;19.682;2023-02-19T12:36:09;99099.91;;;12.00;100.00
70930;BME280;58588;48.102;19.682;2023-02-19T12:39:18;99095.56;;;12.13;100.00
70930;BME280;58588;48.102;19.682;2023-02-19T12:42:37;99078.75;;;12.50;100.00
70930;BME280;58588;48.102;19.682;2023-02-19T12:45:50;99071.63;;;12.82;100.00
70930;BME280;58588;48.102;19.682;2023-02-19T12:48:56;99076.34;;;13.20;100.00
70930;BME280;58588;48.102;19.682;2023-02-19T12:52:06;99075.41;;;13.53;100.00
70930;BME280;58588;48.102;19.682;2023-02-19T12:55:20;99085.69;;;13.31;100.00
70930;BME280;58588;48.102;19.682;2023-02-19T12:58:27;99087.38;;;13.12;100.00
70930;BME280;58588;48.102;19.682;2023-02-19T13:01:38;99092.84;;;12.99;100.00
70930;BME280;58588;48.102;19.682;2023-02-19T13:04:57;99075.19;;;12.90;100.00
70930;BME280;58588;48.102;19.682;2023-02-19T13:08:04;99070.59;;;12.70;100.00
70930;BME280;58588;48.102;19.682;2023-02-19T13:11:13;99068.84;;;13.16;100.00
70930;BME280;58588;48.102;19.682;2023-02-19T13:14:22;99055.00;;;12.85;100.00
70930;BME280;58588;48.102;19.682;2023-02-19T13:17:33;99064.69;;;13.13;100.00
70930;BME280;58588;48.102;19.682;2023-02-19T13:20:38;99060.81;;;13.54;100.00
70930;BME280;58588;48.102;19.682;2023-02-19T13:23:44;99069.19;;;13.46;100.00
70930;BME280;58588;48.102;19.682;2023-02-19T13:27:19;99068.41;;;13.19;100.00
70930;BME280;58588;48.102;19.682;2023-02-19T13:30:36;99065.34;;;13.08;100.00
70930;BME280;58588;48.102;19.682;2023-02-19T13:33:52;99077.50;;;13.51;100.00
70930;BME280;58588;48.102;19.682;2023-02-19T13:37:01;99085.03;;;13.87;100.00
70930;BME280;58588;48.102;19.682;2023-02-19T13:40:15;99074.25;;;14.37;100.00
70930;BME280;58588;48.102;19.682;2023-02-19T13:43:23;99089.06;;;14.66;97.44
70930;BME280;58588;48.102;19.682;2023-02-19T13:46:34;99090.09;;;14.90;95.16
70930;BME280;58588;48.102;19.682;2023-02-19T13:49:40;99100.69;;;14.73;94.70
70930;BME280;58588;48.102;19.682;2023-02-19T13:52:42;99096.19;;;14.04;95.02
70930;BME280;58588;48.102;19.682;2023-02-19T13:55:50;99089.47;;;13.75;98.39
70930;BME280;58588;48.102;19.682;2023-02-19T13:58:54;99095.38;;;13.58;100.00
70930;BME280;58588;48.102;19.682;2023-02-19T14:02:23;99113.16;;;13.41;99.14
70930;BME280;58588;48.102;19.682;2023-02-19T14:05:59;99157.53;;;12.41;100.00
70930;BME280;58588;48.102;19.682;2023-02-19T14:09:02;99179.16;;;10.76;100.00
70930;BME280;58588;48.102;19.682;2023-02-19T14:12:15;99176.00;;;10.44;100.00
70930;BME280;58588;48.102;19.682;2023-02-19T14:15:39;99169.16;;;10.48;100.00
70930;BME280;58588;48.102;19.682;2023-02-19T14:18:44;99173.00;;;10.60;100.00
70930;BME280;58588;48.102;19.682;2023-02-19T14:21:48;99157.13;;;10.72;100.00
70930;BME280;58588;48.102;19.682;2023-02-19T14:24:51;99165.13;;;10.59;100.00
70930;BME280;58588;48.102;19.682;2023-02-19T14:27:58;99159.69;;;10.52;100.00
70930;BME280;58588;48.102;19.682;2023-02-19T14:31:08;99155.03;;;10.67;100.00
70930;BME280;58588;48.102;19.682;2023-02-19T14:34:15;99162.88;;;10.62;100.00
70930;BME280;58588;48.102;19.682;2023-02-19T14:37:24;99164.09;;;10.60;100.00
70930;BME280;58588;48.102;19.682;2023-02-19T14:40:31;99151.75;;;10.44;100.00
70930;BME280;58588;48.102;19.682;2023-02-19T14:43:36;99157.28;;;10.21;100.00
70930;BME280;58588;48.102;19.682;2023-02-19T14:46:45;99168.16;;;10.13;100.00
70930;BME280;58588;48.102;19.682;2023-02-19T14:49:54;99175.06;;;10.37;100.00
70930;BME280;58588;48.102;19.682;2023-02-19T14:53:02;99184.13;;;10.51;100.00
70930;BME280;58588;48.102;19.682;2023-02-19T14:56:18;99184.13;;;10.51;100.00
70930;BME280;58588;48.102;19.682;2023-02-19T14:59:26;99185.69;;;10.88;100.00
70930;BME280;58588;48.102;19.682;2023-02-19T15:02:31;99192.63;;;12.08;100.00
70930;BME280;58588;48.102;19.682;2023-02-19T15:05:35;99198.97;;;12.48;100.00
70930;BME280;58588;48.102;19.682;2023-02-19T15:08:55;99209.84;;;12.00;100.00
70930;BME280;58588;48.102;19.682;2023-02-19T15:11:59;99218.28;;;11.49;100.00
70930;BME280;58588;48.102;19.682;2023-02-19T15:15:04;99227.94;;;10.81;100.00
70930;BME280;58588;48.102;19.682;2023-02-19T15:18:07;99228.72;;;10.75;100.00
70930;BME280;58588;48.102;19.682;2023-02-19T15:21:21;99237.19;;;10.50;100.00
70930;BME280;58588;48.102;19.682;2023-02-19T15:24:26;99245.63;;;10.62;100.00
70930;BME280;58588;48.102;19.682;2023-02-19T15:27:28;99247.19;;;10.35;100.00
70930;BME280;58588;48.102;19.682;2023-02-19T15:30:32;99245.22;;;10.43;100.00
70930;BME280;58588;48.102;19.682;2023-02-19T15:33:34;99250.41;;;10.45;100.00
70930;BME280;58588;48.102;19.682;2023-02-19T15:36:36;99248.47;;;10.60;100.00
70930;BME280;58588;48.102;19.682;2023-02-19T15:39:47;99244.31;;;10.58;100.00
70930;BME280;58588;48.102;19.682;2023-02-19T15:42:50;99237.69;;;10.39;100.00
70930;BME280;58588;48.102;19.682;2023-02-19T15:45:54;99231.41;;;10.32;100.00
70930;BME280;58588;48.102;19.682;2023-02-19T15:49:01;99245.91;;;10.01;100.00
70930;BME280;58588;48.102;19.682;2023-02-19T15:52:09;99239.25;;;9.97;100.00
70930;BME280;58588;48.102;19.682;2023-02-19T15:55:23;99248.91;;;9.77;100.00
70930;BME280;58588;48.102;19.682;2023-02-19T15:58:30;99256.00;;;9.63;100.00
70930;BME280;58588;48.102;19.682;2023-02-19T16:01:36;99247.44;;;9.59;100.00
70930;BME280;58588;48.102;19.682;2023-02-19T16:04:39;99249.03;;;9.54;100.00
70930;BME280;58588;48.102;19.682;2023-02-19T16:07:43;99254.59;;;9.52;100.00
70930;BME280;58588;48.102;19.682;2023-02-19T16:10:54;99266.91;;;9.47;100.00
70930;BME280;58588;48.102;19.682;2023-02-19T16:14:17;99261.28;;;9.42;100.00
70930;BME280;58588;48.102;19.682;2023-02-19T16:17:20;99262.38;;;9.47;100.00
70930;BME280;58588;48.102;19.682;2023-02-19T16:20:29;99248.28;;;9.45;100.00
70930;BME280;58588;48.102;19.682;2023-02-19T16:23:31;99248.38;;;9.37;100.00
70930;BME280;58588;48.102;19.682;2023-02-19T16:26:40;99252.94;;;9.36;100.00
70930;BME280;58588;48.102;19.682;2023-02-19T16:29:49;99262.66;;;9.37;100.00
70930;BME280;58588;48.102;19.682;2023-02-19T16:36:38;99283.28;;;9.07;100.00